sensor_id;sensor_type;location;lat;lon;timestamp;pressure;altitude;pressure_sealevel;temperature;humidity
6389;BME280;3227;42.654;23.360;2024-01-15T00:00:16;93852.59;;;1.05;68.63
6389;BME280;3227;42.654;23.360;2024-01-15T00:02:44;93856.19;;;1.15;68.26
6389;BME280;3227;42.654;23.360;2024-01-15T00:05:11;93841.16;;;1.20;67.64
6389;BME280;3227;42.654;23.360;2024-01-15T00:07:38;93841.19;;;1.21;66.96
6389;BME280;3227;42.654;23.360;2024-01-15T00:10:05;93838.81;;;1.27;66.96
6389;BME280;3227;42.654;23.360;2024-01-15T00:12:32;93829.47;;;1.23;67.17
6389;BME280;3227;42.654;23.360;2024-01-15T00:14:59;93838.63;;;1.20;67.10
6389;BME280;3227;42.654;23.360;2024-01-15T00:17:26;93841.75;;;0.76;68.07
6389;BME280;3227;42.654;23.360;2024-01-15T00:19:54;93840.00;;;0.72;69.40
6389;BME280;3227;42.654;23.360;2024-01-15T00:22:20;93847.84;;;0.85;69.16
6389;BME280;3227;42.654;23.360;2024-01-15T00:24:47;93839.38;;;0.83;68.77
6389;BME280;3227;42.654;23.360;2024-01-15T00:27:14;93835.47;;;0.94;68.64
6389;BME280;3227;42.654;23.360;2024-01-15T00:29:41;93837.28;;;0.98;69.15
6389;BME280;3227;42.654;23.360;2024-01-15T00:32:07;93842.84;;;0.86;68.56
6389;BME280;3227;42.654;23.360;2024-01-15T00:34:34;93845.44;;;0.88;69.92
6389;BME280;3227;42.654;23.360;2024-01-15T00:37:03;93828.94;;;1.02;68.94
6389;BME280;3227;42.654;23.360;2024-01-15T00:39:32;93850.94;;;1.06;69.09
6389;BME280;3227;42.654;23.360;2024-01-15T00:41:59;93840.38;;;0.88;68.67
6389;BME280;3227;42.654;23.360;2024-01-15T00:44:25;93847.09;;;0.87;68.63
6389;BME280;3227;42.654;23.360;2024-01-15T00:46:52;93842.97;;;0.91;68.32
6389;BME280;3227;42.654;23.360;2024-01-15T00:49:19;93845.53;;;0.92;68.38
6389;BME280;3227;42.654;23.360;2024-01-15T00:51:46;93838.03;;;0.95;68.74
6389;BME280;3227;42.654;23.360;2024-01-15T00:54:15;93722.91;;;0.27;67.80
6389;BME280;3227;42.654;23.360;2024-01-15T00:56:41;93827.78;;;0.88;68.27
6389;BME280;3227;42.654;23.360;2024-01-15T00:59:08;93843.03;;;0.94;67.97
6389;BME280;3227;42.654;23.360;2024-01-15T01:01:40;93842.09;;;0.89;67.88
6389;BME280;3227;42.654;23.360;2024-01-15T01:04:08;93836.88;;;0.83;68.07
6389;BME280;3227;42.654;23.360;2024-01-15T01:06:35;93835.09;;;0.79;67.89
6389;BME280;3227;42.654;23.360;2024-01-15T01:09:01;93835.81;;;0.74;67.63
6389;BME280;3227;42.654;23.360;2024-01-15T01:11:30;93840.19;;;0.80;68.83
6389;BME280;3227;42.654;23.360;2024-01-15T01:13:56;93832.88;;;0.91;68.97
6389;BME280;3227;42.654;23.360;2024-01-15T01:16:23;93832.19;;;0.96;68.52
6389;BME280;3227;42.654;23.360;2024-01-15T01:18:50;93820.22;;;0.88;67.50
6389;BME280;3227;42.654;23.360;2024-01-15T01:21:17;93832.72;;;0.85;68.74
6389;BME280;3227;42.654;23.360;2024-01-15T01:23:43;93835.81;;;0.74;67.85
6389;BME280;3227;42.654;23.360;2024-01-15T01:26:10;93819.25;;;0.51;67.79
6389;BME280;3227;42.654;23.360;2024-01-15T01:28:38;93830.16;;;0.50;68.28
6389;BME280;3227;42.654;23.360;2024-01-15T01:31:05;93827.63;;;0.49;69.68
6389;BME280;3227;42.654;23.360;2024-01-15T01:33:33;93813.50;;;0.55;69.10
6389;BME280;3227;42.654;23.360;2024-01-15T01:36:00;93808.66;;;0.63;69.65
6389;BME280;3227;42.654;23.360;2024-01-15T01:38:27;93812.03;;;0.63;68.90
6389;BME280;3227;42.654;23.360;2024-01-15T01:40:53;93813.56;;;0.58;67.97
6389;BME280;3227;42.654;23.360;2024-01-15T01:43:20;93809.03;;;0.45;68.73
6389;BME280;3227;42.654;23.360;2024-01-15T01:45:48;93787.69;;;0.31;69.26
6389;BME280;3227;42.654;23.360;2024-01-15T01:48:15;93809.94;;;0.47;69.57
6389;BME280;3227;42.654;23.360;2024-01-15T01:50:42;93810.22;;;0.59;69.43
6389;BME280;3227;42.654;23.360;2024-01-15T01:53:10;93757.50;;;0.32;68.42
6389;BME280;3227;42.654;23.360;2024-01-15T01:55:38;93779.13;;;0.57;68.86
6389;BME280;3227;42.654;23.360;2024-01-15T01:58:05;93807.22;;;0.72;68.14
6389;BME280;3227;42.654;23.360;2024-01-15T02:00:33;93803.94;;;0.76;68.43
6389;BME280;3227;42.654;23.360;2024-01-15T02:03:03;93717.38;;;0.40;69.00
6389;BME280;3227;42.654;23.360;2024-01-15T02:05:30;93795.91;;;0.91;68.38
6389;BME280;3227;42.654;23.360;2024-01-15T02:07:57;93793.13;;;0.81;68.50
6389;BME280;3227;42.654;23.360;2024-01-15T02:10:24;93798.28;;;0.85;68.70
6389;BME280;3227;42.654;23.360;2024-01-15T02:12:51;93789.19;;;0.92;68.75
6389;BME280;3227;42.654;23.360;2024-01-15T02:15:17;93796.69;;;0.89;68.36
6389;BME280;3227;42.654;23.360;2024-01-15T02:18:04;93782.41;;;0.55;67.73
6389;BME280;3227;42.654;23.360;2024-01-15T02:20:32;93773.66;;;0.42;68.22
6389;BME280;3227;42.654;23.360;2024-01-15T02:23:08;93771.16;;;0.42;68.74
6389;BME280;3227;42.654;23.360;2024-01-15T02:25:36;93760.91;;;0.36;70.00
6389;BME280;3227;42.654;23.360;2024-01-15T02:28:04;93754.25;;;0.38;69.53
6389;BME280;3227;42.654;23.360;2024-01-15T02:30:32;93545.91;;;-0.69;69.82
6389;BME280;3227;42.654;23.360;2024-01-15T02:32:59;93722.22;;;0.68;69.47
6389;BME280;3227;42.654;23.360;2024-01-15T02:35:26;93731.59;;;0.72;67.97
6389;BME280;3227;42.654;23.360;2024-01-15T02:37:52;93725.91;;;0.81;68.52
6389;BME280;3227;42.654;23.360;2024-01-15T02:40:21;93736.22;;;0.90;69.00
6389;BME280;3227;42.654;23.360;2024-01-15T02:42:47;93731.44;;;1.02;68.02
6389;BME280;3227;42.654;23.360;2024-01-15T02:45:14;93715.56;;;1.08;68.29
6389;BME280;3227;42.654;23.360;2024-01-15T02:47:41;93718.50;;;1.26;67.11
6389;BME280;3227;42.654;23.360;2024-01-15T02:50:08;93719.41;;;1.28;66.58
6389;BME280;3227;42.654;23.360;2024-01-15T02:52:35;93716.94;;;1.31;67.11
6389;BME280;3227;42.654;23.360;2024-01-15T02:55:01;93724.38;;;1.25;66.47
6389;BME280;3227;42.654;23.360;2024-01-15T02:57:30;93726.75;;;1.19;66.42
6389;BME280;3227;42.654;23.360;2024-01-15T02:59:56;93728.06;;;1.02;66.79
6389;BME280;3227;42.654;23.360;2024-01-15T03:02:23;93720.91;;;0.84;67.41
6389;BME280;3227;42.654;23.360;2024-01-15T03:04:50;93726.81;;;0.85;67.26
6389;BME280;3227;42.654;23.360;2024-01-15T03:07:17;93719.66;;;0.65;67.27
6389;BME280;3227;42.654;23.360;2024-01-15T03:09:44;93722.59;;;0.48;68.43
6389;BME280;3227;42.654;23.360;2024-01-15T03:12:11;93720.69;;;0.39;70.11
6389;BME280;3227;42.654;23.360;2024-01-15T03:14:39;93728.69;;;0.23;70.33
6389;BME280;3227;42.654;23.360;2024-01-15T03:17:05;93709.28;;;0.20;70.45
6389;BME280;3227;42.654;23.360;2024-01-15T03:19:34;93677.44;;;-0.11;71.29
6389;BME280;3227;42.654;23.360;2024-01-15T03:22:01;93718.75;;;0.29;71.09
6389;BME280;3227;42.654;23.360;2024-01-15T03:24:29;93719.66;;;0.31;70.99
6389;BME280;3227;42.654;23.360;2024-01-15T03:26:55;93717.28;;;0.37;71.02
6389;BME280;3227;42.654;23.360;2024-01-15T03:29:22;93711.00;;;0.21;70.46
6389;BME280;3227;42.654;23.360;2024-01-15T03:31:51;93706.69;;;0.16;71.41
6389;BME280;3227;42.654;23.360;2024-01-15T03:34:17;93703.31;;;0.17;71.38
6389;BME280;3227;42.654;23.360;2024-01-15T03:36:44;93694.97;;;-0.14;72.66
6389;BME280;3227;42.654;23.360;2024-01-15T03:39:11;93700.13;;;-0.41;74.10
6389;BME280;3227;42.654;23.360;2024-01-15T03:41:38;93703.25;;;-0.49;75.00
6389;BME280;3227;42.654;23.360;2024-01-15T03:44:05;93686.88;;;-0.04;74.22
6389;BME280;3227;42.654;23.360;2024-01-15T03:46:32;93700.22;;;-0.06;73.36
6389;BME280;3227;42.654;23.360;2024-01-15T03:49:00;93705.88;;;0.18;72.80
6389;BME280;3227;42.654;23.360;2024-01-15T03:51:26;93698.91;;;0.41;71.92
6389;BME280;3227;42.654;23.360;2024-01-15T03:53:53;93694.50;;;0.34;71.41
6389;BME280;3227;42.654;23.360;2024-01-15T03:56:20;93692.19;;;0.42;71.18
6389;BME280;3227;42.654;23.360;2024-01-15T03:58:47;93695.63;;;0.45;71.93
6389;BME280;3227;42.654;23.360;2024-01-15T04:01:13;93697.47;;;0.52;70.84
6389;BME280;3227;42.654;23.360;2024-01-15T04:03:40;93687.84;;;0.36;70.64
6389;BME280;3227;42.654;23.360;2024-01-15T04:06:08;93689.66;;;0.40;71.66
6389;BME280;3227;42.654;23.360;2024-01-15T04:08:35;93684.56;;;0.38;71.32
6389;BME280;3227;42.654;23.360;2024-01-15T04:11:02;93675.47;;;0.45;71.90
6389;BME280;3227;42.654;23.360;2024-01-15T04:13:32;93674.59;;;0.43;71.64
6389;BME280;3227;42.654;23.360;2024-01-15T04:15:59;93662.88;;;0.45;71.40
6389;BME280;3227;42.654;23.360;2024-01-15T04:18:26;93679.84;;;0.52;71.05
6389;BME280;3227;42.654;23.360;2024-01-15T04:20:53;93662.19;;;0.52;71.18
6389;BME280;3227;42.654;23.360;2024-01-15T04:23:21;93671.56;;;0.58;71.08
6389;BME280;3227;42.654;23.360;2024-01-15T04:25:48;93676.69;;;0.61;70.80
6389;BME280;3227;42.654;23.360;2024-01-15T04:28:15;93674.72;;;0.48;71.36
6389;BME280;3227;42.654;23.360;2024-01-15T04:30:42;93680.66;;;0.51;70.75
6389;BME280;3227;42.654;23.360;2024-01-15T04:33:09;93681.28;;;0.41;71.65
6389;BME280;3227;42.654;23.360;2024-01-15T04:35:35;93686.41;;;0.46;71.78
6389;BME280;3227;42.654;23.360;2024-01-15T04:38:02;93675.75;;;0.56;71.76
6389;BME280;3227;42.654;23.360;2024-01-15T04:40:30;93681.75;;;0.62;70.97
6389;BME280;3227;42.654;23.360;2024-01-15T04:42:57;93685.16;;;0.63;70.68
6389;BME280;3227;42.654;23.360;2024-01-15T04:45:24;93686.91;;;0.67;70.76
6389;BME280;3227;42.654;23.360;2024-01-15T04:47:54;93665.84;;;0.63;70.26
6389;BME280;3227;42.654;23.360;2024-01-15T04:50:22;93666.91;;;0.73;70.15
6389;BME280;3227;42.654;23.360;2024-01-15T04:52:49;93672.84;;;0.76;70.37
6389;BME280;3227;42.654;23.360;2024-01-15T04:55:16;93662.66;;;0.72;70.90
6389;BME280;3227;42.654;23.360;2024-01-15T04:57:44;93675.16;;;0.67;70.40
6389;BME280;3227;42.654;23.360;2024-01-15T05:00:12;93659.53;;;0.46;70.62
6389;BME280;3227;42.654;23.360;2024-01-15T05:02:39;93663.22;;;0.60;72.09
6389;BME280;3227;42.654;23.360;2024-01-15T05:05:06;93654.03;;;0.62;70.99
6389;BME280;3227;42.654;23.360;2024-01-15T05:07:33;93661.53;;;0.59;71.69
6389;BME280;3227;42.654;23.360;2024-01-15T05:10:00;93658.22;;;0.62;71.64
6389;BME280;3227;42.654;23.360;2024-01-15T05:12:26;93650.75;;;0.65;70.71
6389;BME280;3227;42.654;23.360;2024-01-15T05:14:55;93651.59;;;0.67;70.30
6389;BME280;3227;42.654;23.360;2024-01-15T05:17:22;93618.88;;;0.31;70.79
6389;BME280;3227;42.654;23.360;2024-01-15T05:19:48;93630.66;;;0.33;71.37
6389;BME280;3227;42.654;23.360;2024-01-15T05:22:15;93637.59;;;0.41;72.25
6389;BME280;3227;42.654;23.360;2024-01-15T05:24:42;93633.19;;;0.32;72.39
6389;BME280;3227;42.654;23.360;2024-01-15T05:27:09;93653.19;;;-0.07;74.84
6389;BME280;3227;42.654;23.360;2024-01-15T05:29:35;93649.06;;;0.29;73.83
6389;BME280;3227;42.654;23.360;2024-01-15T05:32:04;93639.31;;;0.09;73.49
6389;BME280;3227;42.654;23.360;2024-01-15T05:34:31;93632.47;;;-0.30;75.18
6389;BME280;3227;42.654;23.360;2024-01-15T05:36:57;93634.41;;;-0.20;75.42
6389;BME280;3227;42.654;23.360;2024-01-15T05:39:24;93652.50;;;-0.94;78.07
6389;BME280;3227;42.654;23.360;2024-01-15T05:41:52;93633.66;;;-0.49;77.56
6389;BME280;3227;42.654;23.360;2024-01-15T05:44:18;93642.94;;;-0.15;76.46
6389;BME280;3227;42.654;23.360;2024-01-15T05:46:45;93619.31;;;-0.20;75.69
6389;BME280;3227;42.654;23.360;2024-01-15T05:49:13;93628.31;;;0.05;74.65
6389;BME280;3227;42.654;23.360;2024-01-15T05:51:40;93623.47;;;0.13;74.50
6389;BME280;3227;42.654;23.360;2024-01-15T05:54:07;93616.91;;;0.19;74.29
6389;BME280;3227;42.654;23.360;2024-01-15T05:56:34;93597.81;;;0.29;73.66
6389;BME280;3227;42.654;23.360;2024-01-15T05:59:01;93612.22;;;0.33;73.03
6389;BME280;3227;42.654;23.360;2024-01-15T06:01:27;93618.28;;;0.41;73.84
6389;BME280;3227;42.654;23.360;2024-01-15T06:03:54;93625.94;;;0.46;73.66
6389;BME280;3227;42.654;23.360;2024-01-15T06:06:22;93635.34;;;0.53;73.17
6389;BME280;3227;42.654;23.360;2024-01-15T06:08:49;93638.50;;;0.44;73.75
6389;BME280;3227;42.654;23.360;2024-01-15T06:11:16;93637.78;;;0.50;73.39
6389;BME280;3227;42.654;23.360;2024-01-15T06:13:43;93647.19;;;0.57;73.25
6389;BME280;3227;42.654;23.360;2024-01-15T06:16:14;93630.59;;;0.66;72.50
6389;BME280;3227;42.654;23.360;2024-01-15T06:18:42;93583.91;;;0.45;72.86
6389;BME280;3227;42.654;23.360;2024-01-15T06:21:09;93589.88;;;0.48;72.56
6389;BME280;3227;42.654;23.360;2024-01-15T06:23:39;93613.34;;;0.85;72.35
6389;BME280;3227;42.654;23.360;2024-01-15T06:26:06;93606.59;;;0.82;72.34
6389;BME280;3227;42.654;23.360;2024-01-15T06:28:33;93608.09;;;1.14;71.60
6389;BME280;3227;42.654;23.360;2024-01-15T06:31:00;93616.88;;;1.33;71.08
6389;BME280;3227;42.654;23.360;2024-01-15T06:33:27;93613.53;;;1.34;69.89
6389;BME280;3227;42.654;23.360;2024-01-15T06:35:54;93622.84;;;1.37;70.91
6389;BME280;3227;42.654;23.360;2024-01-15T06:38:21;93627.97;;;1.41;69.88
6389;BME280;3227;42.654;23.360;2024-01-15T06:40:50;93625.59;;;1.47;70.03
6389;BME280;3227;42.654;23.360;2024-01-15T06:43:17;93622.69;;;1.73;70.32
6389;BME280;3227;42.654;23.360;2024-01-15T06:45:44;93633.94;;;1.88;69.07
6389;BME280;3227;42.654;23.360;2024-01-15T06:48:11;93624.06;;;2.02;68.15
6389;BME280;3227;42.654;23.360;2024-01-15T06:50:39;93631.91;;;2.19;67.50
6389;BME280;3227;42.654;23.360;2024-01-15T06:53:06;93610.63;;;2.06;67.64
6389;BME280;3227;42.654;23.360;2024-01-15T06:55:33;93638.88;;;2.31;68.48
6389;BME280;3227;42.654;23.360;2024-01-15T06:58:01;93638.97;;;2.40;68.63
6389;BME280;3227;42.654;23.360;2024-01-15T07:00:28;93639.03;;;2.43;67.64
6389;BME280;3227;42.654;23.360;2024-01-15T07:02:55;93636.06;;;2.15;68.07
6389;BME280;3227;42.654;23.360;2024-01-15T07:05:22;93643.94;;;1.84;69.65
6389;BME280;3227;42.654;23.360;2024-01-15T07:07:49;93649.78;;;2.29;72.57
6389;BME280;3227;42.654;23.360;2024-01-15T07:10:16;93650.91;;;2.45;68.85
6389;BME280;3227;42.654;23.360;2024-01-15T07:12:43;93645.66;;;2.35;69.13
6389;BME280;3227;42.654;23.360;2024-01-15T07:15:11;93647.41;;;2.40;69.44
6389;BME280;3227;42.654;23.360;2024-01-15T07:17:38;93649.31;;;2.52;68.30
6389;BME280;3227;42.654;23.360;2024-01-15T07:20:06;93646.88;;;2.58;68.47
6389;BME280;3227;42.654;23.360;2024-01-15T07:22:35;93649.41;;;2.58;67.71
6389;BME280;3227;42.654;23.360;2024-01-15T07:25:04;93617.75;;;2.28;68.03
6389;BME280;3227;42.654;23.360;2024-01-15T07:27:32;93528.72;;;1.92;68.47
6389;BME280;3227;42.654;23.360;2024-01-15T07:30:02;93632.34;;;2.45;68.95
6389;BME280;3227;42.654;23.360;2024-01-15T07:32:33;93635.81;;;2.51;68.07
6389;BME280;3227;42.654;23.360;2024-01-15T07:34:59;93630.69;;;2.48;67.26
6389;BME280;3227;42.654;23.360;2024-01-15T07:37:28;93615.00;;;2.69;69.46
6389;BME280;3227;42.654;23.360;2024-01-15T07:39:55;93637.09;;;2.79;67.82
6389;BME280;3227;42.654;23.360;2024-01-15T07:42:22;93625.41;;;2.89;67.84
6389;BME280;3227;42.654;23.360;2024-01-15T07:44:48;93625.31;;;2.83;68.33
6389;BME280;3227;42.654;23.360;2024-01-15T07:47:16;93640.72;;;2.96;67.32
6389;BME280;3227;42.654;23.360;2024-01-15T07:49:45;93637.44;;;3.03;65.68
6389;BME280;3227;42.654;23.360;2024-01-15T07:52:12;93619.25;;;2.70;66.61
6389;BME280;3227;42.654;23.360;2024-01-15T07:54:39;93576.06;;;2.58;66.18
6389;BME280;3227;42.654;23.360;2024-01-15T07:57:06;93633.94;;;2.95;65.29
6389;BME280;3227;42.654;23.360;2024-01-15T07:59:32;93662.69;;;3.00;65.25
6389;BME280;3227;42.654;23.360;2024-01-15T08:02:01;93611.66;;;2.70;66.24
6389;BME280;3227;42.654;23.360;2024-01-15T08:04:27;93618.44;;;1.70;70.74
6389;BME280;3227;42.654;23.360;2024-01-15T08:06:55;93621.72;;;2.14;69.84
6389;BME280;3227;42.654;23.360;2024-01-15T08:09:23;93618.53;;;2.24;69.16
6389;BME280;3227;42.654;23.360;2024-01-15T08:11:50;93620.91;;;2.15;68.46
6389;BME280;3227;42.654;23.360;2024-01-15T08:14:17;93628.88;;;2.40;68.61
6389;BME280;3227;42.654;23.360;2024-01-15T08:16:44;93612.41;;;2.63;67.61
6389;BME280;3227;42.654;23.360;2024-01-15T08:19:11;93622.91;;;2.35;67.05
6389;BME280;3227;42.654;23.360;2024-01-15T08:21:39;93616.72;;;2.70;67.21
6389;BME280;3227;42.654;23.360;2024-01-15T08:24:08;93634.00;;;3.00;65.55
6389;BME280;3227;42.654;23.360;2024-01-15T08:26:34;93639.34;;;3.23;65.67
6389;BME280;3227;42.654;23.360;2024-01-15T08:29:01;93624.22;;;3.26;64.50
6389;BME280;3227;42.654;23.360;2024-01-15T08:31:28;93610.53;;;3.13;64.97
6389;BME280;3227;42.654;23.360;2024-01-15T08:33:55;93617.31;;;3.14;65.39
6389;BME280;3227;42.654;23.360;2024-01-15T08:36:23;93616.75;;;3.38;65.21
6389;BME280;3227;42.654;23.360;2024-01-15T08:38:50;93562.56;;;3.22;65.10
6389;BME280;3227;42.654;23.360;2024-01-15T08:41:18;93602.09;;;3.83;64.66
6389;BME280;3227;42.654;23.360;2024-01-15T08:43:45;93603.97;;;4.04;63.75
6389;BME280;3227;42.654;23.360;2024-01-15T08:46:12;93599.19;;;4.35;62.20
6389;BME280;3227;42.654;23.360;2024-01-15T08:48:39;93594.28;;;4.57;61.77
6389;BME280;3227;42.654;23.360;2024-01-15T08:51:06;93585.13;;;4.75;60.48
6389;BME280;3227;42.654;23.360;2024-01-15T08:53:33;93582.66;;;4.90;60.83
6389;BME280;3227;42.654;23.360;2024-01-15T08:56:00;93582.75;;;5.07;59.63
6389;BME280;3227;42.654;23.360;2024-01-15T08:58:28;93588.00;;;5.39;57.37
6389;BME280;3227;42.654;23.360;2024-01-15T09:00:55;93596.53;;;5.56;56.99
6389;BME280;3227;42.654;23.360;2024-01-15T09:03:21;93592.38;;;5.74;56.65
6389;BME280;3227;42.654;23.360;2024-01-15T09:05:48;93576.25;;;5.77;55.88
6389;BME280;3227;42.654;23.360;2024-01-15T09:08:15;93573.81;;;5.98;55.00
6389;BME280;3227;42.654;23.360;2024-01-15T09:10:42;93566.94;;;5.79;53.76
6389;BME280;3227;42.654;23.360;2024-01-15T09:13:09;93555.06;;;5.72;54.01
6389;BME280;3227;42.654;23.360;2024-01-15T09:15:37;93547.31;;;5.35;54.61
6389;BME280;3227;42.654;23.360;2024-01-15T09:18:04;93532.06;;;5.28;55.57
6389;BME280;3227;42.654;23.360;2024-01-15T09:20:31;93512.59;;;5.24;56.83
6389;BME280;3227;42.654;23.360;2024-01-15T09:22:58;93517.56;;;4.93;56.93
6389;BME280;3227;42.654;23.360;2024-01-15T09:25:25;93504.00;;;4.90;58.57
6389;BME280;3227;42.654;23.360;2024-01-15T09:27:51;93508.94;;;4.70;58.09
6389;BME280;3227;42.654;23.360;2024-01-15T09:30:18;93521.72;;;4.87;58.21
6389;BME280;3227;42.654;23.360;2024-01-15T09:32:46;93506.47;;;4.81;59.10
6389;BME280;3227;42.654;23.360;2024-01-15T09:35:14;93509.66;;;4.46;58.51
6389;BME280;3227;42.654;23.360;2024-01-15T09:37:41;93499.25;;;4.07;59.76
6389;BME280;3227;42.654;23.360;2024-01-15T09:40:09;93510.28;;;4.15;60.65
6389;BME280;3227;42.654;23.360;2024-01-15T09:42:38;93499.16;;;3.98;61.15
6389;BME280;3227;42.654;23.360;2024-01-15T09:45:06;93510.13;;;3.92;61.54
6389;BME280;3227;42.654;23.360;2024-01-15T09:47:34;93493.16;;;3.88;61.91
6389;BME280;3227;42.654;23.360;2024-01-15T09:50:03;93489.66;;;3.72;62.06
6389;BME280;3227;42.654;23.360;2024-01-15T09:52:30;93451.72;;;3.80;61.00
6389;BME280;3227;42.654;23.360;2024-01-15T09:54:58;93463.75;;;3.13;63.13
6389;BME280;3227;42.654;23.360;2024-01-15T09:57:26;93460.28;;;3.02;64.88
6389;BME280;3227;42.654;23.360;2024-01-15T09:59:53;93455.44;;;2.51;65.90
6389;BME280;3227;42.654;23.360;2024-01-15T10:02:21;93450.34;;;2.48;65.91
6389;BME280;3227;42.654;23.360;2024-01-15T10:04:48;93451.41;;;2.63;65.62
6389;BME280;3227;42.654;23.360;2024-01-15T10:07:16;93422.25;;;2.94;64.24
6389;BME280;3227;42.654;23.360;2024-01-15T10:09:44;93479.25;;;2.06;69.28
6389;BME280;3227;42.654;23.360;2024-01-15T10:12:12;93452.25;;;2.65;67.58
6389;BME280;3227;42.654;23.360;2024-01-15T10:14:38;93449.00;;;2.74;66.62
6389;BME280;3227;42.654;23.360;2024-01-15T10:17:12;93435.09;;;3.14;66.63
6389;BME280;3227;42.654;23.360;2024-01-15T10:19:40;93441.09;;;2.47;67.09
6389;BME280;3227;42.654;23.360;2024-01-15T10:22:08;93425.56;;;2.90;67.45
6389;BME280;3227;42.654;23.360;2024-01-15T10:24:37;93406.81;;;2.70;66.23
6389;BME280;3227;42.654;23.360;2024-01-15T10:27:08;93413.00;;;2.96;66.54
6389;BME280;3227;42.654;23.360;2024-01-15T10:29:35;93423.03;;;2.87;65.71
6389;BME280;3227;42.654;23.360;2024-01-15T10:32:02;93404.75;;;3.16;65.82
6389;BME280;3227;42.654;23.360;2024-01-15T10:34:30;93386.94;;;3.06;63.63
6389;BME280;3227;42.654;23.360;2024-01-15T10:36:57;93399.50;;;2.96;64.94
6389;BME280;3227;42.654;23.360;2024-01-15T10:39:24;93393.75;;;3.14;63.66
6389;BME280;3227;42.654;23.360;2024-01-15T10:41:51;93397.06;;;3.08;65.35
6389;BME280;3227;42.654;23.360;2024-01-15T10:44:18;93382.03;;;3.23;64.85
6389;BME280;3227;42.654;23.360;2024-01-15T10:46:45;93402.59;;;3.60;65.23
6389;BME280;3227;42.654;23.360;2024-01-15T10:49:12;93398.47;;;3.72;64.10
6389;BME280;3227;42.654;23.360;2024-01-15T10:51:39;93328.19;;;3.41;63.21
6389;BME280;3227;42.654;23.360;2024-01-15T10:54:09;93390.28;;;4.13;62.12
6389;BME280;3227;42.654;23.360;2024-01-15T10:56:37;93348.06;;;4.16;61.17
6389;BME280;3227;42.654;23.360;2024-01-15T10:59:06;93372.69;;;4.40;60.43
6389;BME280;3227;42.654;23.360;2024-01-15T11:01:36;93386.88;;;4.06;59.85
6389;BME280;3227;42.654;23.360;2024-01-15T11:04:03;93374.41;;;4.47;60.35
6389;BME280;3227;42.654;23.360;2024-01-15T11:06:42;93363.44;;;4.50;59.53
6389;BME280;3227;42.654;23.360;2024-01-15T11:09:09;93366.88;;;4.70;59.51
6389;BME280;3227;42.654;23.360;2024-01-15T11:11:40;93369.44;;;4.75;60.02
6389;BME280;3227;42.654;23.360;2024-01-15T11:14:08;93326.28;;;4.73;60.19
6389;BME280;3227;42.654;23.360;2024-01-15T11:16:54;93358.25;;;4.29;59.06
6389;BME280;3227;42.654;23.360;2024-01-15T11:19:22;93354.06;;;4.38;61.72
6389;BME280;3227;42.654;23.360;2024-01-15T11:21:49;93342.31;;;4.55;60.22
6389;BME280;3227;42.654;23.360;2024-01-15T11:24:35;93346.53;;;4.53;61.74
6389;BME280;3227;42.654;23.360;2024-01-15T11:27:03;93341.56;;;4.99;62.54
6389;BME280;3227;42.654;23.360;2024-01-15T11:29:32;93337.34;;;4.96;62.04
6389;BME280;3227;42.654;23.360;2024-01-15T11:32:04;93328.06;;;5.20;58.79
6389;BME280;3227;42.654;23.360;2024-01-15T11:34:50;93355.88;;;4.67;60.78
6389;BME280;3227;42.654;23.360;2024-01-15T11:37:17;93353.44;;;5.12;61.97
6389;BME280;3227;42.654;23.360;2024-01-15T11:39:44;93272.19;;;5.20;61.04
6389;BME280;3227;42.654;23.360;2024-01-15T11:42:12;93276.44;;;5.24;58.38
6389;BME280;3227;42.654;23.360;2024-01-15T11:44:41;93321.28;;;5.61;60.65
6389;BME280;3227;42.654;23.360;2024-01-15T11:47:09;93263.69;;;5.65;58.28
6389;BME280;3227;42.654;23.360;2024-01-15T11:50:01;93292.47;;;5.70;58.00
6389;BME280;3227;42.654;23.360;2024-01-15T11:52:34;93312.81;;;5.90;58.11
6389;BME280;3227;42.654;23.360;2024-01-15T11:55:10;93328.94;;;5.51;57.79
6389;BME280;3227;42.654;23.360;2024-01-15T11:57:41;93308.59;;;5.23;61.44
6389;BME280;3227;42.654;23.360;2024-01-15T12:00:12;93300.09;;;5.68;59.76
6389;BME280;3227;42.654;23.360;2024-01-15T12:02:39;93305.16;;;5.97;60.91
6389;BME280;3227;42.654;23.360;2024-01-15T12:05:07;93267.88;;;5.99;57.98
6389;BME280;3227;42.654;23.360;2024-01-15T12:07:34;93311.91;;;6.01;57.99
6389;BME280;3227;42.654;23.360;2024-01-15T12:10:01;93316.19;;;5.98;57.93
6389;BME280;3227;42.654;23.360;2024-01-15T12:12:44;93142.75;;;4.97;57.28
6389;BME280;3227;42.654;23.360;2024-01-15T12:15:15;93280.66;;;5.32;59.62
6389;BME280;3227;42.654;23.360;2024-01-15T12:17:42;93279.84;;;5.18;60.38
6389;BME280;3227;42.654;23.360;2024-01-15T12:20:10;93281.50;;;4.98;61.22
6389;BME280;3227;42.654;23.360;2024-01-15T12:22:38;93298.44;;;5.39;61.79
6389;BME280;3227;42.654;23.360;2024-01-15T12:25:05;93269.63;;;5.47;59.86
6389;BME280;3227;42.654;23.360;2024-01-15T12:27:32;93267.97;;;4.96;60.85
6389;BME280;3227;42.654;23.360;2024-01-15T12:29:59;93277.25;;;4.74;63.67
6389;BME280;3227;42.654;23.360;2024-01-15T12:32:28;93217.19;;;4.56;64.25
6389;BME280;3227;42.654;23.360;2024-01-15T12:34:55;93278.13;;;5.23;63.26
6389;BME280;3227;42.654;23.360;2024-01-15T12:37:23;93273.03;;;5.51;64.73
6389;BME280;3227;42.654;23.360;2024-01-15T12:39:52;93273.81;;;5.80;64.07
6389;BME280;3227;42.654;23.360;2024-01-15T12:42:21;93262.81;;;5.81;60.44
6389;BME280;3227;42.654;23.360;2024-01-15T12:44:48;93264.44;;;6.02;59.85
6389;BME280;3227;42.654;23.360;2024-01-15T12:47:15;93265.28;;;6.13;60.63
6389;BME280;3227;42.654;23.360;2024-01-15T12:49:47;93223.78;;;6.03;61.21
6389;BME280;3227;42.654;23.360;2024-01-15T12:52:19;93156.09;;;5.75;59.93
6389;BME280;3227;42.654;23.360;2024-01-15T12:54:47;93261.13;;;5.83;60.25
6389;BME280;3227;42.654;23.360;2024-01-15T12:57:13;93259.44;;;5.70;61.12
6389;BME280;3227;42.654;23.360;2024-01-15T12:59:40;93251.78;;;6.00;60.19
6389;BME280;3227;42.654;23.360;2024-01-15T13:02:07;93157.00;;;5.59;61.23
6389;BME280;3227;42.654;23.360;2024-01-15T13:04:34;93250.81;;;6.23;58.81
6389;BME280;3227;42.654;23.360;2024-01-15T13:07:02;93234.72;;;6.24;60.75
6389;BME280;3227;42.654;23.360;2024-01-15T13:09:29;93233.75;;;6.43;59.26
6389;BME280;3227;42.654;23.360;2024-01-15T13:11:56;93237.09;;;6.51;59.32
6389;BME280;3227;42.654;23.360;2024-01-15T13:14:22;93192.25;;;6.39;59.47
6389;BME280;3227;42.654;23.360;2024-01-15T13:16:49;93229.47;;;6.54;59.34
6389;BME280;3227;42.654;23.360;2024-01-15T13:19:16;93195.59;;;6.43;59.41
6389;BME280;3227;42.654;23.360;2024-01-15T13:21:46;93215.09;;;6.47;59.01
6389;BME280;3227;42.654;23.360;2024-01-15T13:24:14;93233.84;;;6.31;59.36